Time;durP1;ratioP1;P1;durP2;ratioP2;P2;SDS_P1;SDS_P2;PMS_P1;PMS_P2;Temp;Humidity;BMP_temperature;BMP_pressure;BME280_temperature;BME280_humidity;BME280_pressure;Samples;Min_cycle;Max_cycle;Signal;HPM_P1;HPM_P2
2021/05/21 00:02:20;;;;;;;6.20;1.27;;;14.30;25.50;;;;;;5051849;28;20195;-73
2021/05/21 00:04:46;;;;;;;1.97;1.10;;;14.40;25.40;;;;;;5051649;28;20276;-73
2021/05/21 00:07:12;;;;;;;2.07;1.67;;;14.30;25.30;;;;;;5051803;28;20167;-72
2021/05/21 00:09:38;;;;;;;4.03;1.30;;;14.30;25.30;;;;;;5051462;28;20643;-71
2021/05/21 00:12:03;;;;;;;1.40;1.30;;;14.20;26.00;;;;;;5051950;28;20168;-71
2021/05/21 00:14:29;;;;;;;3.80;1.37;;;14.10;26.40;;;;;;5064164;28;20404;-72
2021/05/21 00:16:55;;;;;;;1.30;1.20;;;14.10;26.30;;;;;;5072149;28;20424;-72
2021/05/21 00:19:21;;;;;;;2.50;1.60;;;13.90;26.80;;;;;;5075958;28;20174;-72
2021/05/21 00:21:46;;;;;;;4.70;1.90;;;13.90;26.80;;;;;;5075566;28;20589;-72
2021/05/21 00:24:12;;;;;;;3.43;1.80;;;13.90;27.20;;;;;;5058008;28;20395;-72
2021/05/21 00:26:38;;;;;;;1.50;1.00;;;13.80;27.60;;;;;;5075934;28;20206;-72
2021/05/21 00:29:04;;;;;;;2.57;1.07;;;13.80;27.60;;;;;;5075346;28;20216;-72
2021/05/21 00:31:29;;;;;;;3.20;1.63;;;13.80;27.90;;;;;;5075700;28;20224;-72
2021/05/21 00:33:55;;;;;;;6.10;1.20;;;13.80;27.50;;;;;;5075451;28;20979;-71
2021/05/21 00:36:21;;;;;;;5.73;1.07;;;13.90;27.50;;;;;;5075784;28;20436;-72
2021/05/21 00:38:46;;;;;;;3.83;1.17;;;13.90;27.60;;;;;;5075520;28;20198;-72
2021/05/21 00:41:12;;;;;;;4.10;1.20;;;14.00;27.30;;;;;;5074935;22;20242;-74
2021/05/21 00:43:37;;;;;;;3.17;1.30;;;14.00;27.00;;;;;;5049111;28;20180;-76
2021/05/21 00:46:03;;;;;;;2.27;1.00;;;14.10;27.00;;;;;;5047402;28;20289;-75
2021/05/21 00:48:28;;;;;;;1.90;1.17;;;14.10;26.90;;;;;;5047488;28;20172;-76
2021/05/21 00:50:54;;;;;;;2.70;1.07;;;14.10;27.10;;;;;;5044980;28;20665;-77
2021/05/21 00:53:28;;;;;;;1.97;1.30;;;14.10;27.40;;;;;;5037266;28;20259;-76
2021/05/21 00:55:57;;;;;;;3.73;1.43;;;14.10;26.90;;;;;;5036584;28;20429;-76
2021/05/21 00:58:23;;;;;;;1.80;1.13;;;14.10;27.30;;;;;;5036884;28;20419;-76
2021/05/21 01:00:54;;;;;;;2.70;1.50;;;14.10;27.30;;;;;;5036511;28;20441;-76
2021/05/21 01:03:20;;;;;;;3.17;1.00;;;14.00;27.20;;;;;;5018138;28;20208;-76
2021/05/21 01:05:46;;;;;;;1.23;1.13;;;13.90;27.90;;;;;;5036955;28;20465;-75
2021/05/21 01:08:14;;;;;;;6.30;1.30;;;13.80;27.80;;;;;;5018203;28;20426;-76
2021/05/21 01:10:39;;;;;;;2.60;1.00;;;13.80;28.30;;;;;;5036643;28;20184;-76
2021/05/21 01:13:05;;;;;;;1.47;1.37;;;13.90;28.10;;;;;;5036461;28;20424;-76
2021/05/21 01:15:38;;;;;;;1.73;1.00;;;13.90;28.20;;;;;;5056998;28;20182;-76
2021/05/21 01:18:06;;;;;;;2.37;1.23;;;13.80;28.30;;;;;;5056846;28;20225;-75
2021/05/21 01:20:33;;;;;;;2.40;1.20;;;13.90;28.80;;;;;;5058014;28;20442;-75
2021/05/21 01:22:59;;;;;;;1.40;1.30;;;14.00;27.80;;;;;;5039628;28;20425;-77
2021/05/21 01:25:26;;;;;;;2.37;1.00;;;14.00;27.80;;;;;;5059792;28;20493;-76
2021/05/21 01:27:53;;;;;;;7.43;1.27;;;14.00;27.90;;;;;;5037112;28;20464;-76
2021/05/21 01:30:19;;;;;;;5.50;1.00;;;14.00;28.10;;;;;;5054984;28;20438;-76
2021/05/21 01:32:47;;;;;;;1.93;1.07;;;13.90;28.20;;;;;;5054709;28;20448;-76
2021/05/21 01:35:15;;;;;;;1.30;1.20;;;13.90;28.10;;;;;;5054777;28;20790;-76
2021/05/21 01:37:43;;;;;;;2.40;1.10;;;13.90;28.40;;;;;;5056174;28;20464;-75
2021/05/21 01:40:10;;;;;;;2.60;1.10;;;13.90;28.30;;;;;;5036792;28;20904;-76
2021/05/21 01:42:35;;;;;;;5.17;1.40;;;13.90;28.30;;;;;;5055852;28;20427;-76
2021/05/21 01:45:02;;;;;;;2.13;1.07;;;13.90;28.40;;;;;;5054740;28;20522;-76
2021/05/21 01:47:28;;;;;;;3.33;1.20;;;13.90;28.80;;;;;;5050102;28;20179;-75
2021/05/21 01:49:53;;;;;;;2.70;1.17;;;13.80;28.90;;;;;;5034607;28;20923;-76
2021/05/21 01:52:19;;;;;;;5.70;0.90;;;13.90;28.70;;;;;;5034907;28;20236;-75
2021/05/21 01:54:45;;;;;;;1.77;1.67;;;13.90;28.50;;;;;;5034449;28;20172;-77
2021/05/21 01:57:11;;;;;;;1.30;1.20;;;13.80;28.80;;;;;;5035225;28;20789;-75
2021/05/21 01:59:36;;;;;;;1.73;1.03;;;13.80;29.10;;;;;;5034430;28;20172;-76
2021/05/21 02:02:03;;;;;;;1.00;1.00;;;13.80;29.10;;;;;;5035125;28;20191;-76
2021/05/21 02:04:31;;;;;;;1.40;1.30;;;13.70;29.30;;;;;;5035603;28;20454;-75
2021/05/21 02:06:57;;;;;;;4.00;1.70;;;13.80;29.20;;;;;;5017382;28;20433;-75
2021/05/21 02:09:22;;;;;;;1.57;1.47;;;13.80;29.30;;;;;;5034771;28;20419;-76
2021/05/21 02:11:48;;;;;;;1.67;1.57;;;13.70;29.60;;;;;;5035871;28;20195;-76
2021/05/21 02:14:14;;;;;;;5.10;1.13;;;13.70;29.40;;;;;;5044946;28;20410;-75
2021/05/21 02:16:39;;;;;;;1.40;1.30;;;13.80;29.30;;;;;;5055224;28;20180;-77
2021/05/21 02:19:05;;;;;;;7.57;1.30;;;13.80;29.40;;;;;;5054908;28;20583;-76
2021/05/21 02:21:33;;;;;;;2.07;1.33;;;13.80;29.10;;;;;;5041593;28;20593;-77
2021/05/21 02:24:00;;;;;;;4.00;1.10;;;13.80;29.50;;;;;;5059202;28;20282;-76
2021/05/21 02:26:26;;;;;;;2.40;1.23;;;13.80;29.40;;;;;;5056825;28;20434;-77
2021/05/21 02:28:52;;;;;;;4.43;1.37;;;13.80;29.70;;;;;;5053854;28;20952;-76
2021/05/21 02:31:18;;;;;;;4.10;1.20;;;13.80;29.80;;;;;;5054136;28;20894;-77
2021/05/21 02:33:44;;;;;;;2.00;1.20;;;13.80;30.00;;;;;;5053612;28;20167;-76
2021/05/21 02:36:09;;;;;;;2.50;1.30;;;13.80;29.70;;;;;;5053845;28;20425;-75
2021/05/21 02:38:35;;;;;;;3.00;1.53;;;13.80;29.60;;;;;;5054218;28;20635;-76
2021/05/21 02:41:01;;;;;;;4.10;1.40;;;13.90;29.40;;;;;;5053182;28;20208;-76
2021/05/21 02:43:26;;;;;;;3.30;1.50;;;13.80;29.90;;;;;;5053980;28;20224;-74
2021/05/21 02:45:52;;;;;;;2.50;1.10;;;13.80;29.60;;;;;;5054081;28;20210;-76
2021/05/21 02:48:17;;;;;;;1.63;1.00;;;13.70;29.50;;;;;;5025751;28;20180;-75
2021/05/21 02:50:43;;;;;;;1.80;1.20;;;13.70;29.60;;;;;;5016922;28;20251;-75
2021/05/21 02:53:09;;;;;;;3.53;1.20;;;13.70;29.70;;;;;;5038735;28;20171;-76
2021/05/21 02:55:35;;;;;;;1.30;1.10;;;13.70;29.80;;;;;;5040327;28;20168;-76
2021/05/21 02:58:02;;;;;;;3.83;1.10;;;13.70;30.00;;;;;;5043552;28;20430;-76
2021/05/21 03:00:28;;;;;;;4.97;1.60;;;13.60;30.40;;;;;;5036985;28;20465;-76
2021/05/21 03:02:54;;;;;;;1.50;1.17;;;13.60;30.20;;;;;;5033554;28;20414;-76
2021/05/21 03:05:22;;;;;;;5.07;1.50;;;13.60;29.90;;;;;;5034144;28;20317;-76
2021/05/21 03:07:55;;;;;;;1.63;1.20;;;13.60;30.10;;;;;;5034088;28;20172;-75
2021/05/21 03:10:25;;;;;;;1.47;1.20;;;13.50;30.50;;;;;;5016786;28;20982;-76
2021/05/21 03:12:51;;;;;;;4.00;1.20;;;13.50;30.90;;;;;;5039424;28;20411;-75
2021/05/21 03:15:18;;;;;;;3.97;1.60;;;13.50;31.50;;;;;;5061706;28;20396;-77
2021/05/21 03:17:44;;;;;;;4.43;1.57;;;13.40;31.00;;;;;;5061104;28;20443;-75
2021/05/21 03:20:11;;;;;;;1.00;1.00;;;13.30;31.70;;;;;;5055502;28;20439;-76
2021/05/21 03:22:36;;;;;;;3.93;1.07;;;13.20;32.00;;;;;;5053589;28;20829;-76
2021/05/21 03:25:04;;;;;;;3.20;1.30;;;13.10;33.00;;;;;;5053170;28;20475;-76
2021/05/21 03:27:31;;;;;;;2.83;1.27;;;13.00;32.60;;;;;;5053239;28;20186;-76
2021/05/21 03:29:57;;;;;;;4.50;1.57;;;12.80;33.30;;;;;;5053518;28;20420;-76
2021/05/21 03:32:23;;;;;;;3.23;1.10;;;12.70;33.90;;;;;;5052425;28;20405;-76
2021/05/21 03:34:49;;;;;;;6.53;1.67;;;12.60;34.40;;;;;;5052328;28;20428;-76
2021/05/21 03:37:14;;;;;;;3.23;1.17;;;12.50;34.80;;;;;;5052297;28;20235;-75
2021/05/21 03:39:40;;;;;;;3.60;1.70;;;12.50;35.10;;;;;;5052433;28;20631;-76
2021/05/21 03:42:06;;;;;;;3.80;1.53;;;12.50;34.90;;;;;;5052130;28;20620;-76
2021/05/21 03:44:32;;;;;;;9.33;2.00;;;12.50;35.10;;;;;;5034221;28;20199;-76
2021/05/21 03:47:01;;;;;;;2.80;1.40;;;12.40;36.00;;;;;;5052242;28;20467;-75
2021/05/21 03:49:26;;;;;;;3.47;1.10;;;12.50;35.80;;;;;;5052082;28;20167;-76
2021/05/21 03:51:53;;;;;;;1.23;1.13;;;12.50;35.60;;;;;;5050940;28;20948;-76
2021/05/21 03:54:18;;;;;;;1.90;1.47;;;12.50;35.70;;;;;;5051878;28;20171;-76
2021/05/21 03:56:44;;;;;;;3.83;1.70;;;12.50;35.70;;;;;;5052351;28;20496;-76
2021/05/21 03:59:09;;;;;;;3.80;1.63;;;12.80;35.10;;;;;;5051925;28;20209;-76
2021/05/21 04:01:35;;;;;;;2.00;1.80;;;12.80;34.80;;;;;;5052081;28;20236;-77
2021/05/21 04:04:01;;;;;;;3.60;2.00;;;12.90;34.80;;;;;;5052051;28;20167;-77
2021/05/21 04:06:27;;;;;;;3.03;1.90;;;12.90;34.70;;;;;;5034511;28;20199;-77
2021/05/21 04:08:52;;;;;;;4.27;1.80;;;12.90;34.70;;;;;;5042106;28;20457;-77
2021/05/21 04:11:18;;;;;;;6.07;2.03;;;13.30;33.80;;;;;;5034644;28;20690;-77
2021/05/21 04:13:44;;;;;;;4.70;1.57;;;13.30;33.70;;;;;;5038850;28;20207;-77
2021/05/21 04:16:13;;;;;;;2.03;1.40;;;13.40;33.20;;;;;;5034478;28;20195;-76
2021/05/21 04:18:38;;;;;;;1.60;1.30;;;13.40;32.90;;;;;;5052505;28;20167;-76
2021/05/21 04:21:04;;;;;;;4.70;1.90;;;13.30;33.70;;;;;;5054307;28;20520;-77
2021/05/21 04:23:29;;;;;;;7.83;1.60;;;13.30;33.70;;;;;;5054509;28;20175;-77
2021/05/21 04:25:55;;;;;;;7.40;2.07;;;13.30;34.10;;;;;;5053302;28;20553;-77
2021/05/21 04:28:20;;;;;;;4.00;2.10;;;13.30;33.50;;;;;;5052169;28;20171;-77
2021/05/21 04:30:46;;;;;;;3.43;1.90;;;13.30;33.80;;;;;;5052164;28;20297;-77
2021/05/21 04:33:12;;;;;;;2.03;1.70;;;13.20;34.20;;;;;;5033756;28;20186;-76
2021/05/21 04:35:37;;;;;;;3.43;2.00;;;13.10;34.50;;;;;;5051625;28;20179;-76
2021/05/21 04:38:03;;;;;;;1.73;1.53;;;13.00;34.60;;;;;;5051833;28;20197;-76
2021/05/21 04:40:28;;;;;;;2.90;1.80;;;13.00;34.80;;;;;;5051404;28;20209;-76
2021/05/21 04:42:54;;;;;;;3.90;1.80;;;13.00;34.70;;;;;;5051969;28;20186;-76
2021/05/21 04:45:20;;;;;;;5.87;1.80;;;13.00;34.70;;;;;;5051886;28;20199;-77
2021/05/21 04:47:48;;;;;;;2.80;2.00;;;13.10;35.10;;;;;;5047330;28;20171;-77
2021/05/21 04:50:13;;;;;;;3.20;1.73;;;13.20;34.80;;;;;;5033863;28;20595;-78
2021/05/21 04:52:39;;;;;;;3.23;1.90;;;13.30;34.20;;;;;;5032291;28;20434;-78
2021/05/21 04:55:05;;;;;;;2.33;1.70;;;13.40;34.10;;;;;;5032121;28;20258;-75
2021/05/21 04:57:31;;;;;;;3.80;1.83;;;13.40;34.10;;;;;;5033079;28;20208;-77
2021/05/21 04:59:56;;;;;;;4.13;2.30;;;13.50;33.50;;;;;;5032713;28;20808;-76
2021/05/21 05:02:22;;;;;;;3.80;1.57;;;13.40;33.70;;;;;;5031185;28;20485;-75
2021/05/21 05:04:48;;;;;;;2.57;1.80;;;13.40;33.90;;;;;;5034364;28;20228;-76
2021/05/21 05:07:13;;;;;;;4.33;2.10;;;13.40;33.80;;;;;;5035295;28;20225;-76
2021/05/21 05:09:39;;;;;;;8.57;2.63;;;13.40;33.90;;;;;;5035526;28;20181;-76
2021/05/21 05:12:05;;;;;;;3.60;1.97;;;13.50;33.80;;;;;;5035378;28;20193;-77
2021/05/21 05:14:30;;;;;;;2.60;1.40;;;13.60;32.80;;;;;;5047761;28;20262;-76
2021/05/21 05:16:56;;;;;;;3.67;1.70;;;13.80;32.80;;;;;;5057883;28;20466;-77
2021/05/21 05:19:21;;;;;;;1.63;1.53;;;13.80;32.50;;;;;;5057322;28;20171;-76
2021/05/21 05:21:48;;;;;;;3.63;2.10;;;14.00;32.50;;;;;;5057991;28;20312;-77
2021/05/21 05:24:21;;;;;;;7.13;1.87;;;14.10;31.90;;;;;;5056241;28;20180;-77
2021/05/21 05:26:48;;;;;;;9.60;2.00;;;14.20;31.80;;;;;;5055259;28;20412;-77
2021/05/21 05:29:14;;;;;;;4.93;2.47;;;14.20;31.50;;;;;;5038391;28;20413;-78
2021/05/21 05:31:42;;;;;;;6.07;1.83;;;14.40;31.10;;;;;;5055725;28;20460;-77
2021/05/21 05:34:08;;;;;;;8.17;2.10;;;14.50;30.50;;;;;;5055361;28;20387;-78
2021/05/21 05:36:33;;;;;;;11.20;2.33;;;14.60;30.10;;;;;;5056081;28;20453;-77
2021/05/21 05:38:59;;;;;;;4.47;1.73;;;14.70;29.90;;;;;;5054803;28;20235;-77
2021/05/21 05:41:25;;;;;;;3.57;2.13;;;14.70;30.00;;;;;;5036235;28;20207;-77
2021/05/21 05:43:51;;;;;;;5.70;2.20;;;14.70;30.10;;;;;;5054947;28;20630;-76
2021/05/21 05:46:16;;;;;;;4.90;2.07;;;14.70;29.60;;;;;;5057189;28;20203;-78
2021/05/21 05:48:42;;;;;;;6.47;2.50;;;14.80;29.40;;;;;;5021439;28;20891;-76
2021/05/21 05:51:07;;;;;;;7.00;2.03;;;14.80;28.90;;;;;;5035218;28;20196;-76
2021/05/21 05:53:37;;;;;;;5.07;1.90;;;14.90;29.10;;;;;;5036120;28;20729;-77
2021/05/21 05:56:04;;;;;;;6.00;2.00;;;14.90;29.00;;;;;;5035644;28;20221;-77
2021/05/21 05:58:31;;;;;;;4.20;1.70;;;14.90;29.00;;;;;;5035021;28;20456;-76
2021/05/21 06:00:57;;;;;;;6.07;2.07;;;15.10;28.60;;;;;;5034088;28;20461;-77
2021/05/21 06:03:22;;;;;;;3.20;1.80;;;15.00;28.90;;;;;;5034392;28;20503;-76
2021/05/21 06:05:48;;;;;;;11.10;2.23;;;15.10;28.40;;;;;;5034883;28;20812;-77
2021/05/21 06:08:13;;;;;;;7.70;2.07;;;15.00;29.10;;;;;;5035804;28;20489;-76
2021/05/21 06:10:40;;;;;;;6.63;2.17;;;15.00;28.60;;;;;;5016667;28;20623;-76
2021/05/21 06:13:07;;;;;;;8.83;1.97;;;15.00;28.60;;;;;;5035533;28;20181;-77
2021/05/21 06:15:33;;;;;;;2.40;1.53;;;15.10;28.40;;;;;;5056516;28;20409;-78
2021/05/21 06:18:00;;;;;;;2.60;2.03;;;15.20;28.20;;;;;;5057629;28;20408;-77
2021/05/21 06:20:27;;;;;;;3.00;1.67;;;15.30;28.00;;;;;;5057962;28;20421;-78
2021/05/21 06:22:53;;;;;;;9.17;2.60;;;15.50;27.80;;;;;;5055916;28;20421;-77
2021/05/21 06:25:39;;;;;;;12.00;3.00;;;15.60;27.40;;;;;;5056428;28;20993;-77
2021/05/21 06:28:04;;;;;;;10.43;2.60;;;15.80;26.90;;;;;;5053457;28;20425;-77
2021/05/21 06:30:30;;;;;;;6.07;1.27;;;16.00;26.80;;;;;;5036656;28;20472;-78
2021/05/21 06:32:55;;;;;;;6.07;2.60;;;16.20;25.40;;;;;;5055171;28;20174;-76
2021/05/21 06:35:22;;;;;;;5.93;1.80;;;16.20;25.00;;;;;;5036270;28;20203;-76
2021/05/21 06:37:48;;;;;;;12.50;2.33;;;16.30;24.70;;;;;;5053463;28;20170;-76
2021/05/21 06:40:14;;;;;;;5.50;1.90;;;16.30;25.20;;;;;;5053215;28;20440;-77
2021/05/21 06:42:39;;;;;;;4.30;1.80;;;16.40;24.60;;;;;;5083087;22;20225;-81
2021/05/21 06:45:06;;;;;;;3.47;1.83;;;16.60;23.60;;;;;;5094739;28;20480;-81
2021/05/21 06:47:32;;;;;;;5.70;1.60;;;16.40;24.10;;;;;;5092207;28;20173;-84
2021/05/21 06:49:57;;;;;;;7.00;1.57;;;16.50;23.90;;;;;;5095044;28;20495;-82
2021/05/21 06:52:23;;;;;;;5.33;2.37;;;16.60;24.10;;;;;;5076506;28;20190;-81
2021/05/21 06:54:48;;;;;;;5.27;2.27;;;16.70;23.30;;;;;;5093351;28;20185;-83
2021/05/21 06:57:14;;;;;;;4.73;2.40;;;16.60;23.40;;;;;;5092194;28;20178;-84
2021/05/21 06:59:40;;;;;;;9.70;2.17;;;16.60;23.40;;;;;;5083183;28;20273;-84
2021/05/21 07:02:05;;;;;;;8.13;2.20;;;16.30;24.50;;;;;;5083343;28;20194;-83
2021/05/21 07:04:31;;;;;;;8.73;2.00;;;16.30;23.50;;;;;;5066307;28;20894;-82
2021/05/21 07:06:57;;;;;;;10.73;2.50;;;16.40;23.60;;;;;;5083795;28;20174;-82
2021/05/21 07:09:23;;;;;;;5.43;1.90;;;16.50;23.50;;;;;;5065448;28;20561;-78
2021/05/21 07:11:48;;;;;;;16.50;3.17;;;16.50;22.70;;;;;;5082674;28;20244;-82
2021/05/21 07:14:14;;;;;;;6.40;1.90;;;16.30;24.00;;;;;;5078891;28;20245;-86
2021/05/21 07:16:41;;;;;;;10.63;2.50;;;16.30;23.30;;;;;;5047825;28;20193;-78
2021/05/21 07:19:07;;;;;;;10.13;2.43;;;16.50;23.10;;;;;;5079156;28;20432;-76
2021/05/21 07:21:33;;;;;;;9.97;2.80;;;16.40;22.40;;;;;;5075714;28;20471;-74
2021/05/21 07:23:58;;;;;;;10.43;2.33;;;16.40;22.50;;;;;;5073870;28;20419;-77
2021/05/21 07:26:25;;;;;;;7.20;2.77;;;16.50;22.00;;;;;;5078983;28;20202;-76
2021/05/21 07:28:53;;;;;;;14.27;2.27;;;16.60;21.80;;;;;;5080974;28;20174;-76
2021/05/21 07:31:19;;;;;;;12.33;2.63;;;16.60;21.10;;;;;;5060913;28;20407;-77
2021/05/21 07:33:44;;;;;;;6.43;2.30;;;16.60;21.50;;;;;;5082578;28;20423;-76
2021/05/21 07:36:10;;;;;;;11.77;2.37;;;16.60;21.40;;;;;;5078971;28;20426;-77
2021/05/21 07:38:36;;;;;;;5.70;2.27;;;16.60;21.30;;;;;;5060028;28;20185;-77
2021/05/21 07:41:03;;;;;;;15.23;2.30;;;16.70;20.80;;;;;;5058159;28;20419;-76
2021/05/21 07:43:29;;;;;;;11.63;2.27;;;16.70;20.30;;;;;;5061704;28;20207;-76
2021/05/21 07:45:56;;;;;;;9.43;2.53;;;17.00;19.20;;;;;;5059974;28;20456;-77
2021/05/21 07:48:22;;;;;;;16.83;2.50;;;17.20;18.80;;;;;;5050464;28;20911;-78
2021/05/21 07:50:48;;;;;;;6.47;2.83;;;17.50;17.70;;;;;;5080004;28;20551;-76
2021/05/21 07:53:13;;;;;;;13.33;3.00;;;17.60;16.70;;;;;;5073479;28;20234;-77
2021/05/21 07:55:39;;;;;;;7.50;2.27;;;17.60;15.70;;;;;;5072587;28;20320;-76
2021/05/21 07:58:06;;;;;;;12.00;2.60;;;17.50;15.60;;;;;;5074660;28;20248;-75
2021/05/21 08:00:32;;;;;;;13.77;3.30;;;17.50;15.50;;;;;;5061959;28;20186;-76
2021/05/21 08:02:57;;;;;;;20.63;2.50;;;17.60;15.50;;;;;;5077422;28;20408;-76
2021/05/21 08:05:23;;;;;;;10.00;2.30;;;17.90;15.30;;;;;;5073347;28;20205;-76
2021/05/21 08:07:49;;;;;;;9.17;2.13;;;17.90;16.30;;;;;;5073427;28;20654;-78
2021/05/21 08:10:15;;;;;;;12.27;2.83;;;17.70;16.20;;;;;;5073936;28;20177;-76
2021/05/21 08:12:40;;;;;;;9.17;2.23;;;17.70;15.60;;;;;;5073610;28;20327;-77
2021/05/21 08:15:07;;;;;;;12.80;2.40;;;17.80;15.50;;;;;;5073219;28;20528;-76
2021/05/21 08:17:34;;;;;;;13.87;2.80;;;17.30;15.10;;;;;;5054551;28;20224;-76
2021/05/21 08:20:01;;;;;;;18.93;2.90;;;16.70;15.50;;;;;;5062280;28;20563;-77
2021/05/21 08:22:27;;;;;;;9.70;2.03;;;16.30;16.20;;;;;;5059354;28;21156;-82
2021/05/21 08:24:53;;;;;;;12.57;2.87;;;16.20;16.40;;;;;;5081706;28;20434;-81
2021/05/21 08:27:19;;;;;;;7.80;2.30;;;16.00;17.40;;;;;;5066863;28;20431;-83
2021/05/21 08:29:44;;;;;;;12.07;2.40;;;15.90;17.00;;;;;;5079299;28;20176;-83
2021/05/21 08:32:10;;;;;;;6.90;2.30;;;15.90;16.90;;;;;;5079239;28;20211;-84
2021/05/21 08:34:35;;;;;;;19.57;2.50;;;15.80;17.20;;;;;;5080300;28;20173;-83
2021/05/21 08:37:01;;;;;;;6.17;2.40;;;15.80;17.30;;;;;;5064359;28;20208;-83
2021/05/21 08:39:27;;;;;;;19.23;2.47;;;15.60;17.30;;;;;;5087465;28;20210;-84
2021/05/21 08:41:54;;;;;;;9.60;2.50;;;15.50;17.30;;;;;;5068397;28;20209;-81
2021/05/21 08:44:21;;;;;;;22.33;3.57;;;15.50;16.80;;;;;;5086471;28;20423;-83
2021/05/21 08:46:47;;;;;;;11.10;2.73;;;15.80;15.50;;;;;;5065335;28;20418;-83
2021/05/21 08:49:13;;;;;;;10.23;2.47;;;16.10;14.30;;;;;;5080573;28;20758;-83
2021/05/21 08:51:39;;;;;;;7.73;2.23;;;16.40;13.30;;;;;;5064075;28;20532;-85
2021/05/21 08:54:07;;;;;;;8.37;2.47;;;16.70;13.10;;;;;;5082748;28;20379;-84
2021/05/21 08:56:34;;;;;;;9.60;2.67;;;16.80;13.10;;;;;;5065916;28;20463;-79
2021/05/21 08:58:59;;;;;;;7.83;2.33;;;17.30;12.40;;;;;;5064207;28;20473;-82
2021/05/21 09:01:26;;;;;;;9.80;2.70;;;17.60;11.60;;;;;;5053907;28;20440;-84
2021/05/21 09:04:00;;;;;;;12.60;2.90;;;17.80;11.40;;;;;;5085115;28;20423;-79
2021/05/21 09:06:26;;;;;;;18.23;2.60;;;17.80;11.60;;;;;;5085325;28;20517;-84
2021/05/21 09:08:52;;;;;;;12.10;3.10;;;17.50;9.90;;;;;;5081667;28;20424;-81
2021/05/21 09:11:22;;;;;;;16.77;2.53;;;17.20;11.20;;;;;;5067472;28;20410;-83
2021/05/21 09:13:51;;;;;;;9.00;2.30;;;17.10;11.20;;;;;;5091245;28;20412;-83
2021/05/21 09:16:24;;;;;;;7.87;2.20;;;17.30;11.50;;;;;;5085617;28;20436;-82
2021/05/21 09:19:10;;;;;;;14.00;3.07;;;17.40;10.40;;;;;;5089981;28;20402;-86
2021/05/21 09:22:07;;;;;;;6.37;2.00;;;17.20;9.90;;;;;;5082231;28;20909;-84
2021/05/21 09:24:48;;;;;;;7.90;2.03;;;16.80;9.80;;;;;;5060385;28;20567;-81
2021/05/21 09:27:17;;;;;;;11.97;2.67;;;16.60;10.40;;;;;;5077188;28;20879;-82
2021/05/21 09:29:51;;;;;;;9.83;2.83;;;16.70;11.50;;;;;;5077731;28;20456;-82
2021/05/21 09:32:37;;;;;;;6.63;2.80;;;16.80;12.10;;;;;;5087139;28;21025;-80
2021/05/21 09:35:15;;;;;;;12.33;2.17;;;17.20;10.10;;;;;;5069129;28;20431;-78
2021/05/21 09:37:44;;;;;;;9.87;2.67;;;17.70;9.30;;;;;;5077385;28;20448;-79
2021/05/21 09:40:14;;;;;;;13.83;2.07;;;18.00;7.00;;;;;;5060195;28;20439;-79
2021/05/21 09:42:55;;;;;;;10.00;2.73;;;18.00;7.20;;;;;;5081918;28;20467;-78
2021/05/21 09:45:32;;;;;;;6.50;2.40;;;18.00;6.70;;;;;;5080611;28;20479;-78
2021/05/21 09:48:11;;;;;;;6.93;2.63;;;18.00;8.10;;;;;;5071639;28;20921;-79
2021/05/21 09:50:39;;;;;;;19.07;3.33;;;18.00;7.80;;;;;;5060544;28;20469;-79
2021/05/21 09:53:05;;;;;;;15.73;2.93;;;17.90;8.40;;;;;;5071790;28;20460;-80
2021/05/21 09:55:42;;;;;;;13.73;2.83;;;17.90;8.50;;;;;;5064658;28;20432;-80
2021/05/21 09:58:22;;;;;;;31.47;3.40;;;17.70;8.70;;;;;;5088557;28;20194;-79
2021/05/21 10:01:21;;;;;;;12.97;2.70;;;17.40;9.30;;;;;;5069994;28;21218;-77
2021/05/21 10:03:48;;;;;;;6.40;3.00;;;17.10;10.80;;;;;;5086221;28;20420;-81
2021/05/21 10:06:16;;;;;;;17.30;2.87;;;17.50;10.70;;;;;;5085690;28;20477;-80
2021/05/21 10:08:46;;;;;;;16.50;3.27;;;18.10;10.20;;;;;;5086023;28;20416;-83
2021/05/21 10:11:13;;;;;;;18.83;2.80;;;18.40;9.90;;;;;;5083021;28;20436;-84
2021/05/21 10:13:44;;;;;;;11.07;3.00;;;18.50;9.30;;;;;;5082688;28;20420;-80
2021/05/21 10:16:18;;;;;;;14.93;3.37;;;18.50;9.30;;;;;;5066771;28;20432;-79
2021/05/21 10:18:51;;;;;;;12.53;3.37;;;18.60;9.40;;;;;;5085690;28;20424;-81
2021/05/21 10:21:18;;;;;;;6.93;1.93;;;18.50;9.70;;;;;;5088200;28;20421;-83
2021/05/21 10:23:55;;;;;;;8.47;2.60;;;18.20;8.50;;;;;;5087202;28;20491;-81
2021/05/21 10:26:33;;;;;;;14.07;2.97;;;18.10;9.20;;;;;;5092471;28;20467;-83
2021/05/21 10:29:00;;;;;;;18.30;3.33;;;18.20;9.90;;;;;;5082611;28;20434;-84
2021/05/21 10:31:29;;;;;;;5.97;2.37;;;18.40;9.00;;;;;;5061208;28;20513;-82
2021/05/21 10:34:15;;;;;;;11.83;2.30;;;18.60;7.70;;;;;;5076992;28;20424;-82
2021/05/21 10:36:41;;;;;;;13.47;3.63;;;18.70;8.30;;;;;;5082917;28;20507;-83
2021/05/21 10:39:11;;;;;;;6.27;2.30;;;18.80;8.20;;;;;;5083833;28;20428;-82
2021/05/21 10:41:38;;;;;;;8.30;2.10;;;18.60;7.00;;;;;;5082179;28;20531;-81
2021/05/21 10:44:19;;;;;;;14.40;2.20;;;18.60;7.80;;;;;;5080181;28;20423;-83
2021/05/21 10:46:46;;;;;;;14.70;2.83;;;18.70;7.50;;;;;;5081272;28;20483;-82
2021/05/21 10:49:24;;;;;;;;;;;18.50;7.80;;;;;;5081234;28;20323;-84
2021/05/21 10:51:50;;;;;;;;;;;18.30;8.60;;;;;;5081179;28;20011;-81
2021/05/21 10:54:22;;;;;;;;;;;18.30;8.10;;;;;;5062018;28;19943;-83
2021/05/21 10:56:47;;;;;;;;;;;18.20;9.20;;;;;;5080374;28;19919;-83
2021/05/21 10:59:13;;;;;;;;;;;18.50;9.20;;;;;;5084159;28;19897;-82
2021/05/21 11:01:48;;;;;;;;;;;18.80;7.70;;;;;;5087886;28;19904;-83
2021/05/21 11:04:17;;;;;;;;;;;19.00;7.90;;;;;;5091473;28;19904;-82
2021/05/21 11:06:50;;;;;;;;;;;19.00;7.70;;;;;;5092465;28;19900;-81
2021/05/21 11:09:20;;;;;;;;;;;18.80;7.90;;;;;;5069665;28;19904;-82
2021/05/21 11:11:58;;;;;;;16.03;2.77;;;18.20;8.90;;;;;;5091002;28;19904;-82
2021/05/21 11:14:32;;;;;;;20.30;3.70;;;17.70;9.80;;;;;;5083424;28;20412;-85
2021/05/21 11:17:06;;;;;;;6.87;2.20;;;17.60;11.10;;;;;;5078505;28;20444;-83
2021/05/21 11:19:31;;;;;;;12.60;2.77;;;18.00;8.80;;;;;;5060064;28;20420;-83
2021/05/21 11:22:18;;;;;;;21.17;2.80;;;18.00;8.20;;;;;;5063128;28;20433;-84
2021/05/21 11:24:46;;;;;;;7.63;2.40;;;17.80;8.80;;;;;;5055307;28;20198;-84
2021/05/21 11:27:13;;;;;;;24.47;4.53;;;17.90;9.50;;;;;;5084907;28;20412;-82
2021/05/21 11:29:44;;;;;;;13.43;2.23;;;18.00;8.40;;;;;;5086923;28;20394;-84
2021/05/21 11:32:10;;;;;;;9.93;2.20;;;18.00;7.60;;;;;;5086946;28;20995;-84
2021/05/21 11:34:36;;;;;;;10.23;2.70;;;17.90;7.80;;;;;;5089891;28;20407;-86
2021/05/21 11:37:04;;;;;;;32.33;3.80;;;18.00;7.10;;;;;;5067269;28;20396;-84
2021/05/21 11:39:30;;;;;;;16.43;2.90;;;18.00;7.50;;;;;;5051179;28;20205;-86
2021/05/21 11:41:57;;;;;;;11.47;2.70;;;18.00;7.80;;;;;;5053463;28;20445;-83
2021/05/21 11:44:27;;;;;;;21.87;2.23;;;18.00;8.30;;;;;;5065353;28;20429;-81
2021/05/21 11:47:06;;;;;;;10.80;2.83;;;18.20;8.00;;;;;;5071470;28;20412;-83
2021/05/21 11:49:33;;;;;;;14.47;3.37;;;18.60;7.60;;;;;;5070900;28;20425;-86
2021/05/21 11:52:06;;;;;;;11.23;2.43;;;18.70;7.50;;;;;;5076000;28;20432;-79
2021/05/21 11:54:33;;;;;;;9.37;3.00;;;18.70;6.70;;;;;;5089510;28;20413;-77
2021/05/21 11:57:00;;;;;;;11.50;2.27;;;18.90;6.90;;;;;;5093894;28;20425;-76
2021/05/21 11:59:27;;;;;;;15.40;3.20;;;19.10;6.70;;;;;;5090311;28;20448;-81
2021/05/21 12:01:52;;;;;;;24.80;3.70;;;19.00;6.80;;;;;;5083051;28;20470;-75
2021/05/21 12:04:27;;;;;;;9.57;2.10;;;19.20;6.90;;;;;;5060253;28;20428;-80
2021/05/21 12:06:53;;;;;;;15.00;3.00;;;19.10;5.90;;;;;;5077958;28;20199;-81
2021/05/21 12:09:20;;;;;;;7.70;2.20;;;18.90;6.70;;;;;;5077624;28;20444;-80
2021/05/21 12:11:48;;;;;;;15.00;2.63;;;18.90;7.60;;;;;;5087717;28;20519;-77
2021/05/21 12:14:16;;;;;;;8.43;2.47;;;19.00;7.40;;;;;;5083985;28;20444;-79
2021/05/21 12:16:43;;;;;;;7.77;2.40;;;18.70;7.50;;;;;;5069120;28;20459;-76
2021/05/21 12:19:11;;;;;;;8.63;2.70;;;18.90;7.80;;;;;;5091643;28;20443;-77
2021/05/21 12:21:42;;;;;;;18.33;2.47;;;19.10;6.90;;;;;;5086294;28;20496;-82
2021/05/21 12:24:10;;;;;;;9.53;2.67;;;19.40;7.50;;;;;;5076343;28;20409;-78
2021/05/21 12:26:38;;;;;;;13.27;3.83;;;19.70;7.30;;;;;;5076174;28;20459;-74
2021/05/21 12:29:07;;;;;;;13.50;2.97;;;19.80;6.80;;;;;;5062033;28;20501;-75
2021/05/21 12:31:36;;;;;;;11.60;2.50;;;19.90;6.80;;;;;;5083295;28;20440;-77
2021/05/21 12:34:02;;;;;;;;;;;20.20;6.00;;;;;;5079772;28;20267;-78
2021/05/21 12:36:29;;;;;;;;;;;20.30;5.70;;;;;;5055579;28;19916;-76
2021/05/21 12:38:54;;;;;;;;;;;20.50;4.50;;;;;;5075495;28;20039;-75
2021/05/21 12:41:32;;;;;;;7.13;2.67;;;20.30;4.60;;;;;;5074570;28;20307;-76
2021/05/21 12:44:20;;;;;;;10.33;2.87;;;20.20;4.90;;;;;;5072483;28;20162;-76
2021/05/21 12:46:45;;;;;;;5.90;2.87;;;19.90;4.60;;;;;;5072779;28;20446;-76
2021/05/21 12:49:12;;;;;;;13.27;2.80;;;20.10;5.40;;;;;;5034918;28;20542;-76
2021/05/21 12:51:38;;;;;;;13.60;2.43;;;20.00;3.90;;;;;;5059735;28;20190;-77
2021/05/21 12:54:33;;;;;;;9.63;2.70;;;19.70;4.00;;;;;;5079766;28;20408;-79